Terminal Aerodrome Forecast
Issued by NWS

Home | Current Version | Previous Version | Text Only | Print | Product List | Glossary On
Versions: 1 2 3 4 5 6 7 8 9 10 11 12 13 14 15
000
FTUS44 KHGX 030221 AAA
TAFUTS
TAF AMD
KUTS 030221Z 0302/0324 10011KT P6SM VCSH OVC060
      TEMPO 0302/0306 4SM -SHRA BR SCT015 BKN025
     FM030600 07007KT 6SM -SHRA BR SCT015 BKN025
     FM031000 06007KT 4SM SHRA BR SCT007 OVC015
     FM031800 04006KT 3SM TSRA BR SCT004 BKN007 OVC012CB=

USA.gov is the U.S. government's official web portal to all federal, state and local government web resources and services.